Licenciado Benito Juarez International Airport
MMMX : now visible

Airfield :











YOU CAN JOIN US ON...

 
LOGIN :

Register | Disclaimer

   EN    FR    IT 

 









Legend :    VFR   Marginal VFR   IFR   Intensive IFR   Very Intensive IFR
Visi :
Ceiling :
>= 8 km
>= 3000ft
5 to 8 km
1000 to 3000 ft
1500m to 5 km
500 to 1000 ft
800 to 1500m
200 to 500 ft
< 800m
< 200 ft
Symbols :   Thunderstorms  Fog  Heavy snow  Heavy precipitations  Wind > 20 kt






- Airport Elevation : 7316 ft
- IATA code : MEX


MMMX - Licenciado Benito Juarez International

CURRENT METAR :
  • 160543Z 32004KT 9SM FEW020 BKN220 17/08 A3036 NOSIG RMK SLP103 52017 959 8/508 HZY

EXPIRED METARs :
  • 160442Z 28015KT 9SM FEW020 BKN220 17/09 A3033 NOSIG RMK 8/508 HZY
  • 160345Z 30010KT 9SM SCT020 OVC220 18/09 A3034 NOSIG RMK 8/403 AC HZY

TAF TAF MMMX
Valid from the 16 at 06:00 until the 17 at 12:00 UTC


160402Z 1606/1712 03005KT P6SM SCT020 BKN080 TX26/1621Z TN14/1612Z
TEMPO 1606/1610 5SM RA BKN020
FM161000 03005KT P6SM SCT020 BKN200
TEMPO 1610/1614 BKN020
FM161600 23005KT P6SM SCT020 SCT250
FM162200 23010KT P6SM SCT15CB BKN080
TEMPO 1622/1702 4SM TSRA
MMFR FIR / North America



MET'MAP, your aeronautical weather chart ! - Copyright ORBIFLY December 2007 - Disclaimer

ORBIFLY MET'MAP TEAM :

Programming & Development : Alexandra Zaïnal
Concept & original design : Baudouin d'Aumeries
Assistance for programming : Marc-Olivier Méhu
Technical & hardware support : Manuel Goepfert

Contact : metmap@orbifly.com




SOURCES & CREDITS :

   NOAA       Earth
Advisory